createdAt,value
2022-12-01T00:01:36.083Z,156857.25
2022-12-01T00:04:04.561Z,156865.19
2022-12-01T00:06:32.843Z,156904.97
2022-12-01T00:09:20.246Z,156897.03
2022-12-01T00:11:49.392Z,156879.78
2022-12-01T00:14:17.874Z,156866.53
2022-12-01T00:16:46.060Z,156871.84
2022-12-01T00:19:13.950Z,156858.56
2022-12-01T00:21:42.028Z,156867.88
2022-12-01T00:24:11.008Z,156865.19
2022-12-01T00:26:39.525Z,156849.31
2022-12-01T00:29:09.003Z,156855.94
2022-12-01T00:31:37.736Z,156854.63
2022-12-01T00:34:11.134Z,156845.31
2022-12-01T00:36:39.972Z,156848.00
2022-12-01T00:39:08.644Z,156851.94
2022-12-01T00:41:36.636Z,156841.38
2022-12-01T00:44:04.983Z,156845.31
2022-12-01T00:46:33.693Z,156846.69
2022-12-01T00:49:01.912Z,156845.31
2022-12-01T00:51:30.622Z,156828.13
2022-12-01T00:53:58.244Z,156837.38
2022-12-01T00:56:26.360Z,156837.38
2022-12-01T00:58:54.249Z,156825.47
2022-12-01T01:01:22.976Z,156828.13
2022-12-01T01:03:50.995Z,156834.75
2022-12-01T01:06:19.243Z,156846.69
2022-12-01T01:08:46.938Z,156817.50
2022-12-01T01:11:15.055Z,156801.59
2022-12-01T01:13:43.119Z,156825.47
2022-12-01T01:16:15.925Z,156822.78
2022-12-01T01:18:43.712Z,156826.81
2022-12-01T01:21:18.134Z,156801.59
2022-12-01T01:23:46.728Z,156820.16
2022-12-01T01:26:30.283Z,156828.13
2022-12-01T01:29:02.923Z,156832.06
2022-12-01T01:31:31.830Z,156821.47
2022-12-01T01:34:00.234Z,156837.38
2022-12-01T01:36:28.813Z,156841.38
2022-12-01T01:38:56.718Z,156838.69
2022-12-01T01:41:25.453Z,156836.06
2022-12-01T01:44:03.089Z,156833.44
2022-12-01T01:46:33.420Z,156834.75
2022-12-01T01:49:08.549Z,156830.75
2022-12-01T01:51:45.708Z,156818.84
2022-12-01T01:54:31.948Z,156816.16
2022-12-01T01:57:01.533Z,156816.16
2022-12-01T01:59:44.228Z,156796.28
2022-12-01T02:02:14.524Z,156814.84
2022-12-01T02:04:46.479Z,156816.16
2022-12-01T02:07:17.772Z,156809.53
2022-12-01T02:09:46.777Z,156821.47
2022-12-01T02:12:45.958Z,156822.78
2022-12-01T02:15:48.883Z,156820.16
2022-12-01T02:18:36.262Z,156810.84
2022-12-01T02:21:33.439Z,156804.22
2022-12-01T02:24:26.696Z,156794.97
2022-12-01T02:27:00.173Z,156787.03
2022-12-01T02:30:02.675Z,156781.72
2022-12-01T02:32:37.990Z,156775.09
2022-12-01T02:36:01.690Z,156771.16
2022-12-01T02:38:39.173Z,156768.47
2022-12-01T02:41:23.565Z,156761.84
2022-12-01T02:44:17.730Z,156771.16
2022-12-01T02:46:59.427Z,156761.84
2022-12-01T02:49:31.321Z,156761.84
2022-12-01T02:51:59.800Z,156761.84
2022-12-01T02:54:30.722Z,156767.16
2022-12-01T02:56:58.948Z,156765.81
2022-12-01T02:59:27.471Z,156768.47
2022-12-01T03:02:24.708Z,156748.63
2022-12-01T03:05:09.970Z,156753.88
2022-12-01T03:07:44.113Z,156763.19
2022-12-01T03:10:37.348Z,156760.50
2022-12-01T03:13:27.517Z,156761.84
2022-12-01T03:16:22.096Z,156767.16
2022-12-01T03:19:08.975Z,156769.81
2022-12-01T03:21:41.727Z,156759.19
2022-12-01T03:24:12.202Z,156756.56
2022-12-01T03:26:42.085Z,156759.19
2022-12-01T03:29:22.530Z,156777.78
2022-12-01T03:32:04.679Z,156732.69
2022-12-01T03:34:53.161Z,156764.50
2022-12-01T03:37:33.722Z,156756.56
2022-12-01T03:40:03.508Z,156753.88
2022-12-01T03:42:38.719Z,156780.41
2022-12-01T03:45:10.634Z,156785.72
2022-12-01T03:47:40.912Z,156784.41
2022-12-01T03:50:13.602Z,156775.09
2022-12-01T03:53:19.759Z,156756.56
2022-12-01T03:55:58.868Z,156764.50
2022-12-01T03:58:36.498Z,156768.47
2022-12-01T04:01:05.577Z,156783.03
2022-12-01T04:03:33.914Z,156767.16
2022-12-01T04:06:03.157Z,156767.16
2022-12-01T04:08:31.044Z,156759.19
2022-12-01T04:10:59.648Z,156751.25
2022-12-01T04:13:27.530Z,156768.47
2022-12-01T04:15:56.129Z,156777.78
2022-12-01T04:18:24.288Z,156796.28
2022-12-01T04:20:53.339Z,156785.72
2022-12-01T04:23:39.362Z,156776.47
2022-12-01T04:26:12.725Z,156775.09
2022-12-01T04:28:43.652Z,156785.72
2022-12-01T04:31:11.781Z,156772.47
2022-12-01T04:33:40.435Z,156783.03
2022-12-01T04:36:09.182Z,156753.88
2022-12-01T04:38:39.857Z,156764.50
2022-12-01T04:41:12.559Z,156760.50
2022-12-01T04:43:41.123Z,156753.88
2022-12-01T04:46:10.087Z,156779.09
2022-12-01T04:48:39.259Z,156777.78
2022-12-01T04:51:08.793Z,156742.00
2022-12-01T04:53:37.358Z,156748.63
2022-12-01T04:56:06.000Z,156771.16
2022-12-01T04:58:34.713Z,156772.47
2022-12-01T05:01:07.508Z,156759.19
2022-12-01T05:03:39.980Z,156781.72
2022-12-01T05:06:13.831Z,156796.28
2022-12-01T05:08:41.833Z,156765.81
2022-12-01T05:11:12.476Z,156796.28
2022-12-01T05:13:42.055Z,156785.72
2022-12-01T05:16:12.582Z,156806.91
2022-12-01T05:18:41.434Z,156787.03
2022-12-01T05:21:11.140Z,156773.78
2022-12-01T05:23:39.468Z,156773.78
2022-12-01T05:26:09.733Z,156775.09
2022-12-01T05:28:38.999Z,156781.72
2022-12-01T05:31:07.226Z,156769.81
2022-12-01T05:33:35.214Z,156764.50
2022-12-01T05:36:03.513Z,156747.25
2022-12-01T05:38:30.903Z,156780.41
2022-12-01T05:40:59.141Z,156777.78
2022-12-01T05:43:29.446Z,156787.03
2022-12-01T05:45:58.576Z,156809.53
2022-12-01T05:48:27.050Z,156788.34
2022-12-01T05:50:55.448Z,156764.50
2022-12-01T05:53:23.118Z,156779.09
2022-12-01T05:55:55.190Z,156805.59
2022-12-01T05:58:23.118Z,156772.47
2022-12-01T06:00:51.152Z,156772.47
2022-12-01T06:03:19.002Z,156808.22
2022-12-01T06:05:47.541Z,156796.28
2022-12-01T06:08:15.759Z,156767.16
2022-12-01T06:10:45.275Z,156791.03
2022-12-01T06:13:13.380Z,156769.81
2022-12-01T06:15:41.301Z,156768.47
2022-12-01T06:18:09.744Z,156784.41
2022-12-01T06:20:37.691Z,156772.47
2022-12-01T06:23:05.394Z,156752.56
2022-12-01T06:25:34.029Z,156730.06
2022-12-01T06:28:02.609Z,156727.38
2022-12-01T06:30:31.043Z,156745.94
2022-12-01T06:32:58.974Z,156747.25
2022-12-01T06:35:27.018Z,156722.13
2022-12-01T06:37:55.109Z,156727.38
2022-12-01T06:40:23.930Z,156711.50
2022-12-01T06:42:52.420Z,156727.38
2022-12-01T06:45:20.389Z,156728.75
2022-12-01T06:47:48.754Z,156743.31
2022-12-01T06:50:17.516Z,156732.69
2022-12-01T06:52:45.638Z,156720.81
2022-12-01T06:55:14.265Z,156720.81
2022-12-01T06:57:43.647Z,156730.06
2022-12-01T07:00:14.038Z,156722.13
2022-12-01T07:02:42.183Z,156743.31
2022-12-01T07:05:10.858Z,156730.06
2022-12-01T07:07:39.690Z,156730.06
2022-12-01T07:10:09.181Z,156718.13
2022-12-01T07:12:37.769Z,156728.75
2022-12-01T07:15:08.393Z,156687.69
2022-12-01T07:17:37.245Z,156719.44
2022-12-01T07:20:05.968Z,156715.50
2022-12-01T07:22:33.978Z,156742.00
2022-12-01T07:25:02.293Z,156744.63
2022-12-01T07:27:33.551Z,156775.09
2022-12-01T07:30:01.670Z,156759.19
2022-12-01T07:32:29.723Z,156763.19
2022-12-01T07:34:58.004Z,156760.50
2022-12-01T07:37:25.773Z,156767.16
2022-12-01T07:39:54.247Z,156756.56
2022-12-01T07:42:21.983Z,156740.63
2022-12-01T07:44:50.470Z,156735.38
2022-12-01T07:47:18.359Z,156756.56
2022-12-01T07:49:47.098Z,156768.47
2022-12-01T07:52:15.698Z,156740.63
2022-12-01T07:54:44.310Z,156756.56
2022-12-01T07:57:15.032Z,156752.56
2022-12-01T07:59:43.551Z,156755.22
2022-12-01T08:02:11.611Z,156743.31
2022-12-01T08:04:40.067Z,156740.63
2022-12-01T08:07:07.844Z,156753.88
2022-12-01T08:09:35.982Z,156759.19
2022-12-01T08:12:04.139Z,156773.78
2022-12-01T08:14:32.393Z,156789.66
2022-12-01T08:17:00.101Z,156809.53
2022-12-01T08:19:29.517Z,156771.16
2022-12-01T08:21:57.814Z,156787.03
2022-12-01T08:24:26.529Z,156793.66
2022-12-01T08:26:54.470Z,156837.38
2022-12-01T08:29:22.945Z,156829.44
2022-12-01T08:31:50.682Z,156821.47
2022-12-01T08:34:19.211Z,156813.53
2022-12-01T08:36:47.051Z,156793.66
2022-12-01T08:39:16.520Z,156804.22
2022-12-01T08:41:44.415Z,156805.59
2022-12-01T08:44:13.118Z,156810.84
2022-12-01T08:46:41.061Z,156784.41
2022-12-01T08:49:09.474Z,156776.47
2022-12-01T08:51:37.222Z,156793.66
2022-12-01T08:54:06.029Z,156820.16
2022-12-01T08:56:37.496Z,156812.22
2022-12-01T08:59:06.376Z,156836.06
2022-12-01T09:01:34.742Z,156818.84
2022-12-01T09:04:06.778Z,156813.53
2022-12-01T09:06:39.592Z,156842.69
2022-12-01T09:09:08.304Z,156829.44
2022-12-01T09:11:36.137Z,156828.13
2022-12-01T09:14:04.696Z,156809.53
2022-12-01T09:16:32.732Z,156836.06
2022-12-01T09:19:01.069Z,156842.69
2022-12-01T09:21:31.015Z,156854.63
2022-12-01T09:24:00.382Z,156846.69
2022-12-01T09:26:29.011Z,156826.81
2022-12-01T09:29:00.598Z,156813.53
2022-12-01T09:31:29.125Z,156817.50
2022-12-01T09:34:08.694Z,156824.13
2022-12-01T09:36:38.110Z,156817.50
2022-12-01T09:39:13.712Z,156830.75
2022-12-01T09:41:55.178Z,156813.53
2022-12-01T09:44:44.000Z,156829.44
2022-12-01T09:47:26.321Z,156828.13
2022-12-01T09:50:03.838Z,156830.75
2022-12-01T09:52:41.076Z,156841.38
2022-12-01T09:55:17.221Z,156826.81
2022-12-01T09:57:48.328Z,156833.44
2022-12-01T10:00:28.875Z,156817.50
2022-12-01T10:03:15.469Z,156826.81
2022-12-01T10:06:29.516Z,156817.50
2022-12-01T10:09:24.900Z,156809.53
2022-12-01T10:11:57.311Z,156805.59
2022-12-01T10:14:25.230Z,156802.91
2022-12-01T10:17:30.803Z,156794.97
2022-12-01T10:20:44.890Z,156773.78
2022-12-01T10:23:29.094Z,156789.66
2022-12-01T10:26:14.535Z,156776.47
2022-12-01T10:29:34.749Z,156776.47
2022-12-01T10:32:31.053Z,156787.03
2022-12-01T10:34:59.407Z,156781.72
2022-12-01T10:37:29.331Z,156788.34
2022-12-01T10:39:58.763Z,156808.22
2022-12-01T10:42:49.652Z,156801.59
2022-12-01T10:45:27.043Z,156809.53
2022-12-01T10:48:18.072Z,156804.22
2022-12-01T10:51:17.134Z,156832.06
2022-12-01T10:53:45.098Z,156820.16
2022-12-01T10:56:18.440Z,156796.28
2022-12-01T10:58:48.731Z,156797.66
2022-12-01T11:01:20.031Z,156792.34
2022-12-01T11:03:52.248Z,156777.78
2022-12-01T11:06:21.868Z,156836.06
2022-12-01T11:09:21.522Z,156836.06
2022-12-01T11:12:02.705Z,156824.13
2022-12-01T11:14:49.778Z,156804.22
2022-12-01T11:17:35.345Z,156820.16
2022-12-01T11:20:32.794Z,156765.81
2022-12-01T11:23:10.197Z,156789.66
2022-12-01T11:25:38.648Z,156789.66
2022-12-01T11:28:07.210Z,156788.34
2022-12-01T11:30:34.934Z,156781.72
2022-12-01T11:33:04.882Z,156776.47
2022-12-01T11:35:36.252Z,156801.59
2022-12-01T11:38:28.685Z,156802.91
2022-12-01T11:40:55.732Z,156788.34
2022-12-01T11:43:30.214Z,156779.09
2022-12-01T11:46:01.532Z,156748.63
2022-12-01T11:48:31.373Z,156801.59
2022-12-01T11:51:20.283Z,156779.09
2022-12-01T11:53:49.160Z,156772.47
2022-12-01T11:56:28.964Z,156775.09
2022-12-01T11:59:30.088Z,156775.09
2022-12-01T12:02:10.851Z,156767.16
2022-12-01T12:05:03.831Z,156745.94
2022-12-01T12:08:01.113Z,156783.03
2022-12-01T12:10:34.504Z,156776.47
2022-12-01T12:13:19.090Z,156777.78
2022-12-01T12:16:10.904Z,156769.81
2022-12-01T12:18:44.791Z,156769.81
2022-12-01T12:21:35.121Z,156780.41
2022-12-01T12:24:23.914Z,156776.47
2022-12-01T12:27:17.223Z,156784.41
2022-12-01T12:30:03.555Z,156800.28
2022-12-01T12:32:55.063Z,156796.28
2022-12-01T12:35:46.200Z,156783.03
2022-12-01T12:38:45.228Z,156781.72
2022-12-01T12:41:40.668Z,156789.66
2022-12-01T12:44:22.026Z,156775.09
2022-12-01T12:47:01.704Z,156757.88
2022-12-01T12:49:29.868Z,156759.19
2022-12-01T12:52:08.787Z,156761.84
2022-12-01T12:54:57.810Z,156743.31
2022-12-01T12:57:37.569Z,156761.84
2022-12-01T13:00:15.959Z,156756.56
2022-12-01T13:03:06.386Z,156751.25
2022-12-01T13:05:55.332Z,156756.56
2022-12-01T13:08:32.465Z,156767.16
2022-12-01T13:11:31.058Z,156765.81
2022-12-01T13:14:20.670Z,156753.88
2022-12-01T13:16:50.760Z,156764.50
2022-12-01T13:19:28.104Z,156752.56
2022-12-01T13:21:56.971Z,156745.94
2022-12-01T13:24:28.420Z,156744.63
2022-12-01T13:27:01.005Z,156745.94
2022-12-01T13:29:40.870Z,156714.19
2022-12-01T13:32:29.865Z,156723.44
2022-12-01T13:34:58.578Z,156718.13
2022-12-01T13:37:29.380Z,156694.31
2022-12-01T13:40:08.885Z,156671.78
2022-12-01T13:42:37.885Z,156708.88
2022-12-01T13:45:16.592Z,156677.06
2022-12-01T13:47:47.525Z,156691.63
2022-12-01T13:50:36.889Z,156698.25
2022-12-01T13:53:12.892Z,156655.88
2022-12-01T13:56:00.735Z,156711.50
2022-12-01T13:58:35.052Z,156711.50
2022-12-01T14:01:22.135Z,156714.19
2022-12-01T14:03:58.259Z,156707.56
2022-12-01T14:06:29.265Z,156706.19
2022-12-01T14:09:03.354Z,156698.25
2022-12-01T14:11:32.789Z,156703.56
2022-12-01T14:14:13.529Z,156683.69
2022-12-01T14:16:55.699Z,156683.69
2022-12-01T14:19:34.019Z,156674.44
2022-12-01T14:22:02.629Z,156679.75
2022-12-01T14:24:44.026Z,156662.50
2022-12-01T14:27:12.767Z,156654.56
2022-12-01T14:29:44.648Z,156659.88
2022-12-01T14:32:15.369Z,156650.59
2022-12-01T14:34:44.809Z,156661.19
2022-12-01T14:37:16.485Z,156658.53
2022-12-01T14:40:07.889Z,156650.59
2022-12-01T14:42:58.959Z,156636.00
2022-12-01T14:45:50.357Z,156618.78
2022-12-01T14:48:23.119Z,156616.16
2022-12-01T14:50:55.328Z,156608.19
2022-12-01T14:53:39.306Z,156608.19
2022-12-01T14:56:17.370Z,156598.94
2022-12-01T14:58:56.718Z,156576.44
2022-12-01T15:01:36.181Z,156589.69
2022-12-01T15:04:06.763Z,156577.75
2022-12-01T15:06:36.396Z,156573.78
2022-12-01T15:11:59.404Z,156542.00
2022-12-01T15:14:48.404Z,156535.38
2022-12-01T15:17:38.203Z,156518.19
2022-12-01T15:20:33.696Z,156497.00
2022-12-01T15:23:08.019Z,156527.44
2022-12-01T15:25:37.229Z,156520.81
2022-12-01T15:28:31.778Z,156520.81
2022-12-01T15:31:00.445Z,156502.25
2022-12-01T15:33:37.240Z,156507.56
2022-12-01T15:36:05.952Z,156535.38
2022-12-01T15:38:36.272Z,156526.13
2022-12-01T15:41:28.657Z,156553.94
2022-12-01T15:44:03.940Z,156539.38
2022-12-01T15:46:34.725Z,156491.69
2022-12-01T15:49:17.145Z,156478.44
2022-12-01T15:51:46.928Z,156471.84
2022-12-01T15:54:24.389Z,156451.97
2022-12-01T15:56:56.157Z,156457.28
2022-12-01T15:59:40.421Z,156465.22
2022-12-01T16:02:31.548Z,156448.03
2022-12-01T16:05:16.112Z,156444.03
2022-12-01T16:08:11.976Z,156433.41
2022-12-01T16:10:37.439Z,156412.25
2022-12-01T16:13:42.996Z,156416.25
2022-12-01T16:16:48.657Z,156425.47
2022-12-01T16:19:19.701Z,156422.84
2022-12-01T16:22:15.096Z,156409.63
2022-12-01T16:25:01.324Z,156403.00
2022-12-01T16:27:31.368Z,156397.69
2022-12-01T16:30:02.166Z,156408.31
2022-12-01T16:32:41.568Z,156413.59
2022-12-01T16:35:21.897Z,156405.63
2022-12-01T16:37:49.893Z,156388.44
2022-12-01T16:40:18.013Z,156392.44
2022-12-01T16:42:46.849Z,156389.75
2022-12-01T16:45:15.194Z,156391.06
2022-12-01T16:47:44.494Z,156383.13
2022-12-01T16:50:17.998Z,156381.81
2022-12-01T16:52:46.576Z,156369.91
2022-12-01T16:55:44.779Z,156379.19
2022-12-01T16:58:13.512Z,156392.44
2022-12-01T17:00:41.460Z,156387.13
2022-12-01T17:03:16.031Z,156391.06
2022-12-01T17:05:44.308Z,156389.75
2022-12-01T17:08:12.893Z,156393.75
2022-12-01T17:10:41.889Z,156388.44
2022-12-01T17:13:11.300Z,156377.84
2022-12-01T17:15:50.402Z,156371.25
2022-12-01T17:18:20.569Z,156364.66
2022-12-01T17:20:59.566Z,156339.47
2022-12-01T17:23:28.643Z,156331.56
2022-12-01T17:25:56.470Z,156319.63
2022-12-01T17:28:24.706Z,156307.72
2022-12-01T17:30:52.858Z,156313.00
2022-12-01T17:33:21.403Z,156298.47
2022-12-01T17:35:50.240Z,156283.91
2022-12-01T17:38:18.377Z,156274.66
2022-12-01T17:40:46.289Z,156269.38
2022-12-01T17:43:14.713Z,156262.75
2022-12-01T17:45:43.381Z,156238.97
2022-12-01T17:48:11.591Z,156234.97
2022-12-01T17:50:39.549Z,156246.88
2022-12-01T17:53:07.948Z,156230.97
2022-12-01T17:55:40.618Z,156233.66
2022-12-01T17:58:08.796Z,156220.41
2022-12-01T18:00:36.908Z,156207.19
2022-12-01T18:03:05.657Z,156196.63
2022-12-01T18:05:33.484Z,156192.66
2022-12-01T18:08:02.119Z,156176.78
2022-12-01T18:10:29.937Z,156152.94
2022-12-01T18:12:58.343Z,156166.19
2022-12-01T18:15:31.792Z,156176.78
2022-12-01T18:18:02.698Z,156168.84
2022-12-01T18:20:30.540Z,156167.50
2022-12-01T18:22:59.073Z,156188.66
2022-12-01T18:25:26.660Z,156175.44
2022-12-01T18:27:59.185Z,156180.72
2022-12-01T18:30:27.148Z,156178.09
2022-12-01T18:32:55.482Z,156162.25
2022-12-01T18:35:26.289Z,156151.63
2022-12-01T18:37:58.772Z,156134.47
2022-12-01T18:40:27.394Z,156134.47
2022-12-01T18:42:55.521Z,156134.47
2022-12-01T18:45:23.175Z,156139.72
2022-12-01T18:47:51.549Z,156137.09
2022-12-01T18:50:19.414Z,156146.34
2022-12-01T18:52:47.760Z,156145.03
2022-12-01T18:55:15.608Z,156129.16
2022-12-01T18:57:44.159Z,156137.09
2022-12-01T19:00:12.859Z,156142.41
2022-12-01T19:02:41.129Z,156118.56
2022-12-01T19:05:09.477Z,156105.34
2022-12-01T19:07:38.085Z,156137.09
2022-12-01T19:10:06.816Z,156134.47
2022-12-01T19:12:40.795Z,156133.09
2022-12-01T19:15:09.928Z,156122.56
2022-12-01T19:17:38.740Z,156108.03
2022-12-01T19:20:08.204Z,156122.56
2022-12-01T19:22:36.767Z,156141.09
2022-12-01T19:25:04.765Z,156119.94
2022-12-01T19:27:35.420Z,156110.63
2022-12-01T19:30:04.195Z,156105.34
2022-12-01T19:32:33.582Z,156118.56
2022-12-01T19:35:01.528Z,156129.16
2022-12-01T19:37:30.890Z,156135.78
2022-12-01T19:39:58.832Z,156149.00
2022-12-01T19:42:27.339Z,156158.25
2022-12-01T19:44:55.977Z,156152.94
2022-12-01T19:47:24.546Z,156154.25
2022-12-01T19:49:52.236Z,156163.56
2022-12-01T19:52:20.802Z,156164.88
2022-12-01T19:54:49.298Z,156166.19
2022-12-01T19:57:18.253Z,156154.25
2022-12-01T19:59:46.179Z,156152.94
2022-12-01T20:02:14.608Z,156150.31
2022-12-01T20:04:42.992Z,156139.72
2022-12-01T20:07:11.122Z,156129.16
2022-12-01T20:09:39.530Z,156146.34
2022-12-01T20:12:08.254Z,156090.78
2022-12-01T20:14:36.865Z,156097.41
2022-12-01T20:17:05.575Z,156081.56
2022-12-01T20:19:34.030Z,156098.78
2022-12-01T20:22:02.703Z,156089.50
2022-12-01T20:24:30.720Z,156094.78
2022-12-01T20:26:59.400Z,156094.78
2022-12-01T20:29:29.883Z,156092.16
2022-12-01T20:31:59.763Z,156105.34
2022-12-01T20:34:31.636Z,156097.41
2022-12-01T20:36:59.967Z,156096.09
2022-12-01T20:39:31.588Z,156071.00
2022-12-01T20:42:00.336Z,156093.47
2022-12-01T20:44:28.963Z,156093.47
2022-12-01T20:46:58.378Z,156115.94
2022-12-01T20:49:26.529Z,156104.03
2022-12-01T20:51:55.231Z,156123.88
2022-12-01T20:54:28.320Z,156094.78
2022-12-01T20:56:58.745Z,156094.78
2022-12-01T20:59:28.238Z,156060.41
2022-12-01T21:01:57.393Z,156073.63
2022-12-01T21:04:28.217Z,156065.72
2022-12-01T21:06:58.223Z,156073.63
2022-12-01T21:09:27.075Z,156063.03
2022-12-01T21:12:16.117Z,156078.94
2022-12-01T21:15:06.384Z,156064.41
2022-12-01T21:17:38.321Z,156061.72
2022-12-01T21:20:13.589Z,156059.09
2022-12-01T21:22:42.505Z,156063.03
2022-12-01T21:25:21.296Z,156044.56
2022-12-01T21:27:50.114Z,156043.25
2022-12-01T21:30:25.217Z,156040.56
2022-12-01T21:32:54.609Z,156033.97
2022-12-01T21:35:27.264Z,156033.97
2022-12-01T21:38:00.977Z,156008.88
2022-12-01T21:40:29.498Z,156015.47
2022-12-01T21:43:02.137Z,155990.34
2022-12-01T21:45:32.729Z,156004.88
2022-12-01T21:48:11.463Z,156031.34
2022-12-01T21:50:39.781Z,156031.34
2022-12-01T21:53:16.733Z,156026.03
2022-12-01T21:55:49.508Z,156016.81
2022-12-01T21:58:29.487Z,156028.66
2022-12-01T22:00:59.358Z,156022.09
2022-12-01T22:03:33.670Z,156041.88
2022-12-01T22:06:30.764Z,156027.34
2022-12-01T22:09:27.230Z,156027.34
2022-12-01T22:11:57.114Z,156033.97
2022-12-01T22:14:30.709Z,156030.03
2022-12-01T22:17:20.903Z,156028.66
2022-12-01T22:20:01.256Z,156022.09
2022-12-01T22:22:30.874Z,156022.09
2022-12-01T22:25:01.773Z,156057.78
2022-12-01T22:27:36.664Z,156039.25
2022-12-01T22:30:08.297Z,156026.03
2022-12-01T22:32:42.303Z,156026.03
2022-12-01T22:35:20.420Z,156016.81
2022-12-01T22:38:13.464Z,156018.09
2022-12-01T22:40:51.895Z,155989.03
2022-12-01T22:43:29.160Z,155973.19
2022-12-01T22:46:00.276Z,155973.19
2022-12-01T22:48:28.490Z,155971.84
2022-12-01T22:51:02.184Z,155990.34
2022-12-01T22:53:31.694Z,155966.56
2022-12-01T22:56:01.393Z,156000.91
2022-12-01T22:58:32.125Z,156002.25
2022-12-01T23:01:11.616Z,155974.50
2022-12-01T23:03:39.438Z,155989.03
2022-12-01T23:06:46.272Z,155971.84
2022-12-01T23:09:15.047Z,155949.38
2022-12-01T23:11:44.444Z,155967.91
2022-12-01T23:14:17.196Z,155965.22
2022-12-01T23:16:45.363Z,155965.22
2022-12-01T23:19:13.620Z,155973.19
2022-12-01T23:21:42.250Z,155946.75
2022-12-01T23:24:11.653Z,155962.59
2022-12-01T23:26:39.573Z,155963.91
2022-12-01T23:29:07.344Z,155981.13
2022-12-01T23:31:35.884Z,155975.81
2022-12-01T23:34:04.691Z,155969.19
2022-12-01T23:36:33.090Z,155958.59
2022-12-01T23:39:04.354Z,155957.28
2022-12-01T23:41:48.402Z,155948.06
2022-12-01T23:44:46.157Z,155933.53
2022-12-01T23:47:20.232Z,155908.41
2022-12-01T23:49:48.787Z,155921.63
2022-12-01T23:52:20.537Z,155903.09
2022-12-01T23:54:48.972Z,155896.53
2022-12-01T23:57:21.773Z,155872.72
2022-12-01T23:59:56.366Z,155878.03
